createdAt,value
2018-06-30T00:01:42.904Z,17.50
2018-06-30T00:04:12.561Z,17.40
2018-06-30T00:06:41.945Z,17.40
2018-06-30T00:09:11.224Z,17.30
2018-06-30T00:11:40.644Z,17.30
2018-06-30T00:14:10.084Z,17.30
2018-06-30T00:16:39.984Z,17.20
2018-06-30T00:19:09.404Z,17.10
2018-06-30T00:21:38.764Z,17.10
2018-06-30T00:24:08.080Z,17.10
2018-06-30T00:26:37.484Z,17.00
2018-06-30T00:29:06.844Z,17.00
2018-06-30T00:31:36.584Z,16.90
2018-06-30T00:34:06.124Z,16.90
2018-06-30T00:36:35.444Z,16.80
2018-06-30T00:39:07.724Z,16.80
2018-06-30T00:41:37.004Z,16.80
2018-06-30T00:46:35.784Z,16.70
2018-06-30T00:49:05.279Z,16.70
2018-06-30T00:51:35.304Z,16.70
2018-06-30T00:54:04.904Z,16.70
2018-06-30T00:56:34.224Z,16.70
2018-06-30T00:59:03.626Z,16.70
2018-06-30T01:01:33.024Z,16.70
2018-06-30T01:06:31.544Z,16.70
2018-06-30T01:09:01.185Z,16.60
2018-06-30T01:11:30.604Z,16.60
2018-06-30T01:14:00.283Z,16.60
2018-06-30T01:16:29.744Z,16.60
2018-06-30T01:18:59.104Z,16.60
2018-06-30T01:21:28.506Z,16.50
2018-06-30T01:23:58.004Z,16.50
2018-06-30T01:26:27.503Z,16.50
2018-06-30T01:28:56.910Z,16.50
2018-06-30T01:31:26.244Z,16.50
2018-06-30T01:33:55.647Z,16.50
2018-06-30T01:36:24.935Z,16.50
2018-06-30T01:38:54.304Z,16.40
2018-06-30T01:41:23.830Z,16.40
2018-06-30T01:43:53.264Z,16.40
2018-06-30T01:46:22.664Z,16.30
2018-06-30T01:48:52.044Z,16.40
2018-06-30T01:51:21.625Z,16.40
2018-06-30T01:53:51.244Z,16.40
2018-06-30T01:56:20.943Z,16.40
2018-06-30T01:58:50.624Z,16.40
2018-06-30T02:01:19.931Z,16.50
2018-06-30T02:03:49.444Z,16.50
2018-06-30T02:06:18.783Z,16.60
2018-06-30T02:08:48.224Z,16.60
2018-06-30T02:11:17.866Z,16.60
2018-06-30T02:13:47.304Z,16.60
2018-06-30T02:16:16.864Z,16.70
2018-06-30T02:18:46.236Z,16.80
2018-06-30T02:21:15.604Z,16.70
2018-06-30T02:23:44.984Z,16.80
2018-06-30T02:26:14.744Z,16.80
2018-06-30T02:28:44.144Z,16.80
2018-06-30T02:31:13.444Z,16.80
2018-06-30T02:33:42.768Z,16.90
2018-06-30T02:36:12.024Z,16.80
2018-06-30T02:38:41.376Z,16.80
2018-06-30T02:41:10.980Z,16.80
2018-06-30T02:43:40.657Z,16.80
2018-06-30T02:48:39.155Z,16.80
2018-06-30T02:51:08.477Z,16.80
2018-06-30T02:53:38.016Z,16.90
2018-06-30T02:56:07.456Z,16.90
2018-06-30T02:58:36.876Z,16.90
2018-06-30T03:01:06.376Z,16.90
2018-06-30T03:03:35.736Z,16.90
2018-06-30T03:06:05.536Z,16.90
2018-06-30T03:08:35.059Z,16.90
2018-06-30T03:11:04.757Z,16.90
2018-06-30T03:16:03.896Z,17.00
2018-06-30T03:18:33.196Z,17.00
2018-06-30T03:21:02.456Z,17.00
2018-06-30T03:23:31.796Z,17.00
2018-06-30T03:26:01.173Z,17.00
2018-06-30T03:28:30.556Z,17.00
2018-06-30T03:30:59.898Z,17.10
2018-06-30T03:33:29.284Z,17.10
2018-06-30T03:35:58.706Z,17.20
2018-06-30T03:38:28.065Z,17.20
2018-06-30T03:40:57.412Z,17.40
2018-06-30T03:43:26.852Z,17.60
2018-06-30T03:45:56.284Z,17.50
2018-06-30T03:48:25.639Z,17.60
2018-06-30T03:50:55.423Z,17.70
2018-06-30T03:53:24.884Z,17.70
2018-06-30T03:55:54.250Z,17.70
2018-06-30T03:58:23.643Z,17.80
2018-06-30T04:00:52.843Z,17.80
2018-06-30T04:03:22.203Z,17.80
2018-06-30T04:05:51.603Z,17.80
2018-06-30T04:08:21.023Z,17.80
2018-06-30T04:10:50.766Z,17.80
2018-06-30T04:13:20.526Z,17.90
2018-06-30T04:15:49.866Z,17.90
2018-06-30T04:18:19.527Z,18.00
2018-06-30T04:20:48.985Z,18.00
2018-06-30T04:23:18.526Z,18.00
2018-06-30T04:25:48.206Z,18.10
2018-06-30T04:28:17.646Z,18.10
2018-06-30T04:30:47.445Z,18.10
2018-06-30T04:33:16.905Z,18.10
2018-06-30T04:35:46.205Z,18.10
2018-06-30T04:38:15.746Z,18.10
2018-06-30T04:40:45.127Z,18.10
2018-06-30T04:43:14.566Z,18.20
2018-06-30T04:45:44.143Z,18.20
2018-06-30T04:48:13.446Z,18.20
2018-06-30T04:50:42.825Z,18.30
2018-06-30T04:53:12.426Z,18.30
2018-06-30T04:55:42.086Z,18.40
2018-06-30T04:58:11.466Z,18.30
2018-06-30T05:00:40.885Z,18.30
2018-06-30T05:03:10.246Z,18.40
2018-06-30T05:05:39.706Z,18.50
2018-06-30T05:08:09.086Z,18.50
2018-06-30T05:10:38.645Z,18.60
2018-06-30T05:13:08.986Z,18.90
2018-06-30T05:15:38.386Z,19.30
2018-06-30T05:18:07.723Z,19.80
2018-06-30T05:20:37.243Z,20.30
2018-06-30T05:23:06.683Z,20.90
2018-06-30T05:25:36.125Z,21.40
2018-06-30T05:28:05.803Z,21.70
2018-06-30T05:30:35.945Z,21.80
2018-06-30T05:33:05.498Z,21.80
2018-06-30T05:35:34.987Z,22.10
2018-06-30T05:38:04.468Z,22.40
2018-06-30T05:40:33.868Z,22.80
2018-06-30T05:43:03.307Z,23.50
2018-06-30T05:48:01.869Z,23.80
2018-06-30T05:50:31.385Z,24.20
2018-06-30T05:53:00.765Z,24.30
2018-06-30T05:55:30.205Z,24.20
2018-06-30T05:57:59.565Z,24.50
2018-06-30T06:00:29.165Z,24.40
2018-06-30T06:02:58.684Z,24.10
2018-06-30T06:05:27.945Z,23.80
2018-06-30T06:07:57.585Z,23.70
2018-06-30T06:10:27.065Z,23.70
2018-06-30T06:12:56.465Z,23.90
2018-06-30T06:15:26.119Z,24.10
2018-06-30T06:17:55.525Z,24.30
2018-06-30T06:20:24.845Z,24.50
2018-06-30T06:22:54.365Z,24.40
2018-06-30T06:25:23.992Z,24.10
2018-06-30T06:27:53.572Z,23.90
2018-06-30T06:30:23.165Z,23.80
2018-06-30T06:32:52.679Z,23.30
2018-06-30T06:35:22.205Z,23.20
2018-06-30T06:37:51.725Z,22.80
2018-06-30T06:40:21.165Z,22.60
2018-06-30T06:42:50.744Z,22.60
2018-06-30T06:45:20.447Z,22.40
2018-06-30T06:47:49.885Z,22.40
2018-06-30T06:50:19.465Z,22.40
2018-06-30T06:52:48.905Z,22.50
2018-06-30T06:55:18.285Z,22.60
2018-06-30T06:57:47.885Z,22.60
2018-06-30T07:00:17.414Z,22.60
2018-06-30T07:02:47.125Z,22.60
2018-06-30T07:05:16.625Z,22.60
2018-06-30T07:07:46.075Z,22.60
2018-06-30T07:10:15.510Z,22.70
2018-06-30T07:12:44.865Z,22.90
2018-06-30T07:15:14.386Z,23.00
2018-06-30T07:17:43.785Z,23.10
2018-06-30T07:20:14.143Z,23.10
2018-06-30T07:22:43.545Z,23.20
2018-06-30T07:25:12.988Z,23.30
2018-06-30T07:30:11.908Z,23.40
2018-06-30T07:32:41.565Z,23.30
2018-06-30T07:35:10.966Z,23.40
2018-06-30T07:37:40.345Z,23.40
2018-06-30T07:40:09.845Z,23.60
2018-06-30T07:42:39.185Z,23.60
2018-06-30T07:45:08.828Z,23.50
2018-06-30T07:47:38.185Z,23.40
2018-06-30T07:50:07.644Z,23.60
2018-06-30T07:52:37.048Z,24.00
2018-06-30T07:55:06.406Z,24.30
2018-06-30T07:57:35.745Z,24.50
2018-06-30T08:00:05.746Z,24.80
2018-06-30T08:02:35.225Z,24.90
2018-06-30T08:05:05.345Z,25.00
2018-06-30T08:07:34.866Z,24.90
2018-06-30T08:10:04.746Z,24.70
2018-06-30T08:12:34.165Z,24.60
2018-06-30T08:15:03.625Z,24.40
2018-06-30T08:17:32.965Z,24.10
2018-06-30T08:20:02.566Z,23.80
2018-06-30T08:22:32.025Z,23.60
2018-06-30T08:25:01.555Z,23.90
2018-06-30T08:27:31.288Z,24.10
2018-06-30T08:30:00.966Z,24.00
2018-06-30T08:32:30.426Z,24.00
2018-06-30T08:37:29.046Z,24.00
2018-06-30T08:39:58.406Z,24.10
2018-06-30T08:42:27.825Z,24.20
2018-06-30T08:44:57.605Z,23.90
2018-06-30T08:47:26.890Z,23.80
2018-06-30T08:49:56.545Z,23.90
2018-06-30T08:52:26.005Z,23.90
2018-06-30T08:54:55.527Z,23.90
2018-06-30T08:57:25.145Z,23.90
2018-06-30T08:59:54.826Z,24.10
2018-06-30T09:02:24.305Z,24.40
2018-06-30T09:04:54.225Z,24.70
2018-06-30T09:07:23.425Z,24.60
2018-06-30T09:09:53.185Z,24.60
2018-06-30T09:12:22.746Z,24.70
2018-06-30T09:14:52.265Z,24.80
2018-06-30T09:17:21.726Z,24.70
2018-06-30T09:19:51.109Z,24.50
2018-06-30T09:22:20.585Z,24.30
2018-06-30T09:24:50.013Z,24.20
2018-06-30T09:27:19.452Z,24.30
2018-06-30T09:29:48.935Z,24.50
2018-06-30T09:32:18.283Z,24.70
2018-06-30T09:34:47.788Z,24.60
2018-06-30T09:37:17.546Z,24.60
2018-06-30T09:39:47.388Z,24.50
2018-06-30T09:42:17.109Z,24.30
2018-06-30T09:44:46.524Z,24.00
2018-06-30T09:47:15.992Z,23.80
2018-06-30T09:49:45.200Z,23.80
2018-06-30T09:52:14.566Z,23.60
2018-06-30T09:54:43.948Z,23.50
2018-06-30T09:57:13.336Z,23.40
2018-06-30T09:59:42.732Z,23.60
2018-06-30T10:02:12.112Z,23.70
2018-06-30T10:04:41.354Z,24.00
2018-06-30T10:07:11.094Z,23.90
2018-06-30T10:09:40.508Z,24.00
2018-06-30T10:12:09.875Z,24.10
2018-06-30T10:14:38.977Z,24.10
2018-06-30T10:17:08.364Z,24.30
2018-06-30T10:19:37.887Z,24.20
2018-06-30T10:22:07.626Z,23.90
2018-06-30T10:24:36.839Z,23.80
2018-06-30T10:29:35.439Z,23.50
2018-06-30T10:32:04.911Z,23.40
2018-06-30T10:34:34.278Z,23.60
2018-06-30T10:37:03.699Z,23.70
2018-06-30T10:39:33.359Z,23.70
2018-06-30T10:42:02.719Z,23.60
2018-06-30T10:44:32.398Z,23.60
2018-06-30T10:47:01.940Z,23.60
2018-06-30T10:49:31.339Z,23.60
2018-06-30T10:52:00.950Z,23.60
2018-06-30T10:54:30.619Z,23.50
2018-06-30T10:57:00.719Z,23.60
2018-06-30T10:59:30.391Z,23.70
2018-06-30T11:04:29.228Z,23.50
2018-06-30T11:06:58.601Z,23.40
2018-06-30T11:09:27.860Z,23.40
2018-06-30T11:11:57.162Z,23.40
2018-06-30T11:14:26.559Z,23.50
2018-06-30T11:16:56.120Z,23.60
2018-06-30T11:19:25.599Z,23.70
2018-06-30T11:21:55.146Z,23.80
2018-06-30T11:24:24.932Z,24.00
2018-06-30T11:26:54.679Z,24.20
2018-06-30T11:29:25.134Z,24.60
2018-06-30T11:31:54.539Z,24.60
2018-06-30T11:34:23.979Z,24.40
2018-06-30T11:36:53.599Z,24.40
2018-06-30T11:39:22.998Z,24.20
2018-06-30T11:41:52.439Z,24.30
2018-06-30T11:44:22.298Z,24.50
2018-06-30T11:49:20.999Z,24.50
2018-06-30T11:51:50.299Z,24.50
2018-06-30T11:54:19.762Z,24.40
2018-06-30T11:56:49.331Z,24.40
2018-06-30T11:59:18.811Z,24.20
2018-06-30T12:01:48.212Z,24.00
2018-06-30T12:04:17.671Z,23.90
2018-06-30T12:06:47.012Z,23.80
2018-06-30T12:11:45.457Z,23.80
2018-06-30T12:14:14.816Z,23.80
2018-06-30T12:16:44.146Z,23.70
2018-06-30T12:19:13.320Z,23.70
2018-06-30T12:21:42.567Z,23.60
2018-06-30T12:24:12.010Z,23.50
2018-06-30T12:26:41.310Z,23.40
2018-06-30T12:29:11.099Z,23.40
2018-06-30T12:31:40.639Z,23.30
2018-06-30T12:34:09.979Z,23.30
2018-06-30T12:36:39.599Z,23.30
2018-06-30T12:39:10.274Z,23.30
2018-06-30T12:41:40.248Z,23.40
2018-06-30T12:44:09.548Z,23.50
2018-06-30T12:46:38.767Z,23.70
2018-06-30T12:49:07.910Z,23.90
2018-06-30T12:51:37.291Z,24.10
2018-06-30T12:54:06.731Z,24.10
2018-06-30T12:56:36.516Z,24.10
2018-06-30T12:59:06.088Z,24.00
2018-06-30T13:01:35.469Z,24.00
2018-06-30T13:04:04.889Z,24.00
2018-06-30T13:06:34.020Z,23.90
2018-06-30T13:09:03.708Z,24.00
2018-06-30T13:11:33.099Z,24.00
2018-06-30T13:14:02.280Z,24.00
2018-06-30T13:16:32.021Z,24.00
2018-06-30T13:19:01.459Z,23.90
2018-06-30T13:21:30.760Z,24.10
2018-06-30T13:24:00.026Z,24.40
2018-06-30T13:28:58.666Z,24.50
2018-06-30T13:31:28.149Z,24.60
2018-06-30T13:33:57.569Z,24.70
2018-06-30T13:36:26.779Z,24.90
2018-06-30T13:38:56.629Z,25.10
2018-06-30T13:46:24.581Z,25.50
2018-06-30T13:48:53.798Z,25.40
2018-06-30T13:51:23.338Z,25.40
2018-06-30T13:56:22.639Z,25.60
2018-06-30T13:58:52.598Z,25.50
2018-06-30T14:01:21.893Z,25.70
2018-06-30T14:03:51.248Z,25.70
2018-06-30T14:06:20.766Z,25.60
2018-06-30T14:11:19.192Z,25.50
2018-06-30T14:13:48.612Z,25.30
2018-06-30T14:16:18.008Z,25.20
2018-06-30T14:18:47.407Z,25.30
2018-06-30T14:21:16.747Z,25.20
2018-06-30T14:23:46.121Z,25.10
2018-06-30T14:26:15.527Z,25.00
2018-06-30T14:28:44.967Z,24.90
2018-06-30T14:31:14.508Z,24.80
2018-06-30T14:33:44.123Z,25.00
2018-06-30T14:36:13.464Z,25.00
2018-06-30T14:38:42.986Z,25.10
2018-06-30T14:41:12.426Z,25.10
2018-06-30T14:43:42.227Z,25.00
2018-06-30T14:46:11.765Z,25.00
2018-06-30T14:48:41.524Z,24.90
2018-06-30T14:51:10.864Z,24.90
2018-06-30T14:53:40.224Z,24.80
2018-06-30T14:56:09.904Z,24.80
2018-06-30T14:58:39.327Z,24.80
2018-06-30T15:01:08.744Z,24.90
2018-06-30T15:03:38.084Z,24.90
2018-06-30T15:06:07.464Z,24.80
2018-06-30T15:08:36.684Z,24.80
2018-06-30T15:11:06.204Z,24.80
2018-06-30T15:13:35.651Z,24.80
2018-06-30T15:16:05.924Z,24.80
2018-06-30T15:18:35.383Z,24.90
2018-06-30T15:21:04.744Z,25.00
2018-06-30T15:23:34.224Z,25.00
2018-06-30T15:26:03.678Z,24.90
2018-06-30T15:28:47.884Z,24.80
2018-06-30T15:31:17.265Z,24.80
2018-06-30T15:33:46.464Z,24.80
2018-06-30T15:36:16.645Z,24.70
2018-06-30T15:38:46.165Z,24.70
2018-06-30T15:41:16.764Z,24.70
2018-06-30T15:43:46.264Z,24.70
2018-06-30T15:46:16.119Z,24.70
2018-06-30T15:48:45.511Z,24.80
2018-06-30T15:51:15.339Z,25.00
2018-06-30T15:53:44.891Z,25.10
2018-06-30T15:56:14.227Z,25.10
2018-06-30T15:58:43.683Z,25.10
2018-06-30T16:01:13.154Z,25.00
2018-06-30T16:03:42.536Z,25.00
2018-06-30T16:06:12.000Z,25.00
2018-06-30T16:08:41.813Z,24.80
2018-06-30T16:11:11.296Z,24.70
2018-06-30T16:13:40.578Z,24.70
2018-06-30T16:16:09.971Z,24.70
2018-06-30T16:18:39.357Z,24.70
2018-06-30T16:21:08.685Z,24.70
2018-06-30T16:23:38.249Z,24.70
2018-06-30T16:26:07.664Z,24.80
2018-06-30T16:28:37.133Z,24.70
2018-06-30T16:31:06.775Z,24.70
2018-06-30T16:33:36.491Z,24.70
2018-06-30T16:36:06.095Z,24.60
2018-06-30T16:38:35.675Z,24.70
2018-06-30T16:41:05.155Z,24.60
2018-06-30T16:43:34.601Z,24.50
2018-06-30T16:46:04.218Z,24.60
2018-06-30T16:48:33.814Z,24.50
2018-06-30T16:51:03.515Z,24.70
2018-06-30T16:53:32.974Z,24.90
2018-06-30T16:56:02.755Z,24.90
2018-06-30T16:58:32.497Z,25.00
2018-06-30T17:01:01.860Z,25.10
2018-06-30T17:03:31.377Z,25.20
2018-06-30T17:06:00.817Z,25.40
2018-06-30T17:08:30.343Z,25.60
2018-06-30T17:11:00.218Z,25.70
2018-06-30T17:13:29.597Z,25.90
2018-06-30T17:20:57.177Z,26.00
2018-06-30T17:23:26.797Z,26.20
2018-06-30T17:25:56.316Z,26.10
2018-06-30T17:28:26.058Z,26.30
2018-06-30T17:30:55.557Z,26.20
2018-06-30T17:33:24.877Z,26.20
2018-06-30T17:35:54.437Z,26.20
2018-06-30T17:38:23.997Z,26.30
2018-06-30T17:40:53.497Z,26.40
2018-06-30T17:43:22.937Z,26.00
2018-06-30T17:45:52.296Z,26.00
2018-06-30T17:48:21.776Z,26.00
2018-06-30T17:50:51.250Z,25.90
2018-06-30T17:53:20.822Z,25.80
2018-06-30T17:55:50.510Z,25.90
2018-06-30T17:58:19.923Z,25.70
2018-06-30T18:00:49.467Z,25.70
2018-06-30T18:03:18.785Z,25.80
2018-06-30T18:05:48.166Z,25.60
2018-06-30T18:08:17.545Z,25.90
2018-06-30T18:10:47.045Z,25.70
2018-06-30T18:13:16.565Z,25.70
2018-06-30T18:15:45.981Z,25.60
2018-06-30T18:18:15.716Z,25.70
2018-06-30T18:20:45.105Z,25.70
2018-06-30T18:23:14.465Z,25.40
2018-06-30T18:25:44.125Z,25.30
2018-06-30T18:28:13.728Z,25.10
2018-06-30T18:30:43.264Z,24.90
2018-06-30T18:33:12.624Z,24.70
2018-06-30T18:35:42.085Z,24.10
2018-06-30T18:38:11.525Z,23.50
2018-06-30T18:40:41.145Z,23.00
2018-06-30T18:43:10.564Z,22.40
2018-06-30T18:45:39.901Z,22.00
2018-06-30T18:48:09.320Z,21.70
2018-06-30T18:50:38.659Z,21.40
2018-06-30T18:53:08.139Z,21.10
2018-06-30T18:58:06.986Z,20.70
2018-06-30T19:00:36.426Z,20.50
2018-06-30T19:03:06.305Z,20.30
2018-06-30T19:05:35.605Z,20.10
2018-06-30T19:08:05.322Z,19.90
2018-06-30T19:10:34.699Z,19.70
2018-06-30T19:13:04.179Z,19.70
2018-06-30T19:18:02.659Z,19.50
2018-06-30T19:20:33.117Z,19.40
2018-06-30T19:23:02.758Z,19.30
2018-06-30T19:25:32.080Z,19.20
2018-06-30T19:28:01.381Z,19.10
2018-06-30T19:30:30.838Z,19.00
2018-06-30T19:33:00.234Z,18.90
2018-06-30T19:35:29.731Z,18.80
2018-06-30T19:37:59.004Z,18.80
2018-06-30T19:40:28.766Z,18.60
2018-06-30T19:42:57.784Z,18.60
2018-06-30T19:45:27.224Z,18.50
2018-06-30T19:47:56.503Z,18.40
2018-06-30T19:50:25.870Z,18.30
2018-06-30T19:52:55.359Z,18.20
2018-06-30T19:55:24.763Z,18.10
2018-06-30T19:57:54.264Z,18.00
2018-06-30T20:00:23.484Z,17.90
2018-06-30T20:02:52.499Z,17.90
2018-06-30T20:05:21.939Z,17.80
2018-06-30T20:07:53.005Z,17.80
2018-06-30T20:10:23.758Z,17.80
2018-06-30T20:12:53.332Z,17.80
2018-06-30T20:15:23.031Z,17.70
2018-06-30T20:17:52.433Z,17.60
2018-06-30T20:22:50.896Z,17.40
2018-06-30T20:25:20.190Z,17.40
2018-06-30T20:27:49.651Z,17.40
2018-06-30T20:30:19.452Z,17.30
2018-06-30T20:32:48.732Z,17.30
2018-06-30T20:35:18.113Z,17.30
2018-06-30T20:37:47.472Z,17.30
2018-06-30T20:40:16.990Z,17.30
2018-06-30T20:42:46.311Z,17.40
2018-06-30T20:45:15.776Z,17.40
2018-06-30T20:47:45.165Z,17.50
2018-06-30T20:50:14.545Z,17.50
2018-06-30T20:52:43.931Z,17.40
2018-06-30T20:57:42.510Z,17.30
2018-06-30T21:00:12.191Z,17.30
2018-06-30T21:02:41.571Z,17.30
2018-06-30T21:05:10.851Z,17.30
2018-06-30T21:07:40.271Z,17.20
2018-06-30T21:10:09.572Z,17.20
2018-06-30T21:12:38.991Z,17.20
2018-06-30T21:15:08.431Z,17.10
2018-06-30T21:17:37.829Z,17.00
2018-06-30T21:20:07.391Z,17.00
2018-06-30T21:22:36.792Z,16.90
2018-06-30T21:25:06.153Z,16.80
2018-06-30T21:27:35.571Z,16.60
2018-06-30T21:30:05.632Z,16.50
2018-06-30T21:32:34.965Z,16.40
2018-06-30T21:35:04.551Z,16.40
2018-06-30T21:37:33.891Z,16.20
2018-06-30T21:40:03.611Z,16.10
2018-06-30T21:42:32.951Z,16.10
2018-06-30T21:45:02.671Z,16.10
2018-06-30T21:47:32.031Z,16.10
2018-06-30T21:50:01.393Z,15.90
2018-06-30T21:52:30.831Z,16.00
2018-06-30T21:55:00.372Z,16.00
2018-06-30T21:57:29.751Z,15.90
2018-06-30T21:59:59.151Z,15.90
2018-06-30T22:02:28.432Z,15.80
2018-06-30T22:04:57.691Z,15.80
2018-06-30T22:07:27.322Z,15.80
2018-06-30T22:09:56.632Z,15.70
2018-06-30T22:12:25.971Z,15.70
2018-06-30T22:14:55.691Z,15.60
2018-06-30T22:17:24.971Z,15.50
2018-06-30T22:19:54.411Z,15.50
2018-06-30T22:22:23.711Z,15.50
2018-06-30T22:24:53.451Z,15.40
2018-06-30T22:27:22.891Z,15.30
2018-06-30T22:29:52.251Z,15.30
2018-06-30T22:32:21.651Z,15.20
2018-06-30T22:37:20.331Z,15.10
2018-06-30T22:40:05.893Z,15.00
2018-06-30T22:42:35.311Z,15.00
2018-06-30T22:45:04.771Z,15.00
2018-06-30T22:47:34.091Z,14.90
2018-06-30T22:50:03.791Z,14.90
2018-06-30T22:52:33.410Z,14.80
2018-06-30T22:55:02.836Z,14.80
2018-06-30T22:57:32.451Z,14.60
2018-06-30T23:00:02.191Z,14.60
2018-06-30T23:02:31.651Z,14.50
2018-06-30T23:05:01.330Z,14.50
2018-06-30T23:07:30.451Z,14.50
2018-06-30T23:09:59.731Z,14.40
2018-06-30T23:12:29.332Z,14.30
2018-06-30T23:14:58.813Z,14.20
2018-06-30T23:17:28.371Z,14.20
2018-06-30T23:19:57.691Z,14.10
2018-06-30T23:23:06.050Z,14.10
2018-06-30T23:25:35.991Z,14.00
2018-06-30T23:28:05.953Z,13.90
2018-06-30T23:30:36.090Z,13.80
2018-06-30T23:33:05.431Z,13.70
2018-06-30T23:35:34.771Z,13.60
2018-06-30T23:38:04.551Z,13.60
2018-06-30T23:40:33.932Z,13.60
2018-06-30T23:43:03.290Z,13.60
2018-06-30T23:45:32.611Z,13.50
2018-06-30T23:48:01.973Z,13.50
2018-06-30T23:50:31.370Z,13.50
2018-06-30T23:53:00.631Z,13.40
2018-06-30T23:55:30.031Z,13.40
2018-06-30T23:57:59.333Z,13.40
